Ship Status Report: callsign BDCJ

sailwx.info

Track history (hours):
 
Tides and Currents Weather Stations Pressure Air Temp Water Temp Dewpoint Dewpoint Depression Visibility Wind Speed Wind Dir Waves Ship Positions

Oceanographic research ship ()

Last reported at 2017-Jun-18 04:16 UTC. Time now 2017-Jun-27 00:18 UTC.
Position N 22°24' E 120°17'.
Warning: this ship's position is 8 days out of date.

Type: Ship (hazmat cat C). MMSI: 404455160.

Date/timePositionNaut miles runAvg speedWind from/ knotsBaromVisibWave heightAir tempDewpointWater temp
2017-Jun-18 04:16N 22°24' E 120°17'3 9.1
2017-Jun-18 03:58N 22°27' E 120°15'5 9.6
2017-Jun-18 03:29N 22°31' E 120°13'4 8.6
2017-Jun-18 02:58N 22°35' E 120°12'3 5.4
2017-Jun-18 02:20N 22°38' E 120°15'2 0.1
2017-Jun-16 07:40N 22°37' E 120°17'1 3.8
2017-Jun-16 07:30N 22°37' E 120°16'4 7.8
2017-Jun-16 07:00N 22°35' E 120°13'510.6
2017-Jun-16 06:30N 22°30' E 120°14'  
Track history (hours):
 
Tides and Currents Weather Stations Pressure Air Temp Water Temp Dewpoint Dewpoint Depression Visibility Wind Speed Wind Dir Waves Ship Positions

Oceanographic research ship ()

Last reported at 2017-Jun-18 04:16 UTC. Time now 2017-Jun-27 00:18 UTC.
Position N 22°24' E 120°17'.
Warning: this ship's position is 8 days out of date.

Type: Ship (hazmat cat C). MMSI: 404455160.

Date/timePositionNaut miles runAvg speedWind from/ knotsBaromVisibWave heightAir tempDewpointWater temp
2017-Jun-18 04:16N 22°24' E 120°17'3 9.1
2017-Jun-18 03:58N 22°27' E 120°15'5 9.6
2017-Jun-18 03:29N 22°31' E 120°13'4 8.6
2017-Jun-18 02:58N 22°35' E 120°12'3 5.4
2017-Jun-18 02:20N 22°38' E 120°15'2 0.1
2017-Jun-16 07:40N 22°37' E 120°17'1 3.8
2017-Jun-16 07:30N 22°37' E 120°16'4 7.8
2017-Jun-16 07:00N 22°35' E 120°13'510.6
2017-Jun-16 06:30N 22°30' E 120°14'  

Dump ship's entire track history